createdAt,value
2018-07-13T00:00:22.791Z,7.67
2018-07-13T00:02:52.720Z,8.30
2018-07-13T00:05:22.583Z,8.23
2018-07-13T00:07:51.818Z,8.40
2018-07-13T00:10:21.081Z,8.30
2018-07-13T00:12:50.454Z,8.07
2018-07-13T00:15:19.679Z,8.10
2018-07-13T00:17:48.928Z,9.27
2018-07-13T00:20:18.327Z,8.80
2018-07-13T00:22:47.592Z,8.27
2018-07-13T00:25:16.758Z,8.40
2018-07-13T00:27:45.984Z,8.40
2018-07-13T00:30:15.225Z,8.60
2018-07-13T00:32:44.375Z,8.70
2018-07-13T00:35:13.526Z,8.90
2018-07-13T00:37:42.810Z,8.70
2018-07-13T00:40:12.265Z,9.23
2018-07-13T00:42:41.590Z,9.47
2018-07-13T00:45:10.751Z,8.13
2018-07-13T00:47:40.158Z,8.50
2018-07-13T00:50:09.629Z,8.90
2018-07-13T00:52:39.136Z,8.90
2018-07-13T00:55:08.675Z,8.00
2018-07-13T00:57:38.039Z,8.03
2018-07-13T01:00:07.365Z,9.20
2018-07-13T01:02:36.619Z,9.80
2018-07-13T01:05:05.839Z,8.80
2018-07-13T01:07:35.093Z,8.73
2018-07-13T01:10:04.429Z,8.10
2018-07-13T01:12:33.764Z,8.90
2018-07-13T01:15:03.974Z,7.90
2018-07-13T01:17:33.334Z,8.90
2018-07-13T01:20:02.672Z,9.80
2018-07-13T01:22:32.040Z,8.93
2018-07-13T01:25:01.385Z,8.77
2018-07-13T01:27:30.765Z,8.00
2018-07-13T01:30:00.504Z,9.40
2018-07-13T01:32:30.655Z,9.37
2018-07-13T01:35:00.733Z,9.17
2018-07-13T01:37:30.751Z,9.30
2018-07-13T01:40:00.124Z,9.60
2018-07-13T01:42:29.554Z,9.60
2018-07-13T01:44:58.923Z,8.73
2018-07-13T01:47:28.142Z,8.67
2018-07-13T01:49:57.408Z,9.33
2018-07-13T01:52:26.906Z,8.50
2018-07-13T01:54:56.174Z,9.57
2018-07-13T01:57:25.730Z,9.13
2018-07-13T01:59:54.929Z,9.03
2018-07-13T02:02:24.263Z,8.63
2018-07-13T02:04:53.667Z,9.73
2018-07-13T02:07:23.105Z,8.30
2018-07-13T02:09:54.675Z,8.97
2018-07-13T02:12:24.203Z,8.60
2018-07-13T02:14:53.767Z,9.53
2018-07-13T02:17:23.378Z,9.63
2018-07-13T02:19:52.718Z,8.67
2018-07-13T02:22:21.950Z,9.43
2018-07-13T02:24:51.835Z,9.20
2018-07-13T02:27:21.070Z,9.00
2018-07-13T02:29:50.421Z,9.03
2018-07-13T02:32:19.668Z,9.37
2018-07-13T02:34:48.926Z,8.67
2018-07-13T02:37:18.362Z,8.83
2018-07-13T02:39:47.774Z,9.17
2018-07-13T02:42:17.050Z,9.03
2018-07-13T02:44:46.289Z,9.97
2018-07-13T02:47:15.593Z,9.90
2018-07-13T02:49:44.887Z,9.50
2018-07-13T02:52:14.217Z,9.50
2018-07-13T02:54:43.483Z,8.70
2018-07-13T02:57:12.727Z,10.43
2018-07-13T02:59:41.965Z,8.70
2018-07-13T03:02:11.265Z,10.03
2018-07-13T03:04:40.566Z,8.90
2018-07-13T03:07:09.857Z,9.37
2018-07-13T03:09:39.214Z,8.70
2018-07-13T03:12:08.675Z,9.57
2018-07-13T03:14:38.112Z,9.27
2018-07-13T03:17:07.266Z,9.77
2018-07-13T03:19:36.674Z,9.33
2018-07-13T03:22:05.979Z,9.70
2018-07-13T03:24:35.376Z,8.83
2018-07-13T03:27:04.759Z,9.80
2018-07-13T03:29:34.206Z,9.70
2018-07-13T03:32:03.603Z,11.17
2018-07-13T03:34:33.110Z,10.93
2018-07-13T03:37:02.924Z,10.80
2018-07-13T03:39:32.415Z,11.57
2018-07-13T03:42:01.687Z,11.67
2018-07-13T03:44:30.992Z,10.67
2018-07-13T03:47:00.507Z,10.40
2018-07-13T03:49:29.683Z,10.80
2018-07-13T03:51:59.082Z,10.33
2018-07-13T03:54:28.389Z,10.13
2018-07-13T03:56:57.764Z,10.60
2018-07-13T03:59:26.988Z,12.23
2018-07-13T04:01:56.241Z,11.60
2018-07-13T04:04:25.522Z,11.80
2018-07-13T04:06:54.938Z,11.70
2018-07-13T04:09:24.226Z,12.70
2018-07-13T04:11:53.629Z,12.63
2018-07-13T04:14:22.930Z,11.83
2018-07-13T04:16:52.231Z,11.70
2018-07-13T04:19:21.526Z,12.10
2018-07-13T04:21:50.930Z,13.70
2018-07-13T04:24:20.203Z,11.40
2018-07-13T04:26:49.528Z,11.63
2018-07-13T04:29:18.786Z,11.30
2018-07-13T04:31:47.952Z,12.43
2018-07-13T04:34:17.231Z,11.53
2018-07-13T04:36:46.683Z,12.43
2018-07-13T04:39:16.020Z,10.73
2018-07-13T04:41:45.435Z,11.87
2018-07-13T04:44:14.798Z,11.63
2018-07-13T04:46:44.165Z,11.70
2018-07-13T04:49:13.393Z,11.57
2018-07-13T04:51:42.816Z,11.93
2018-07-13T04:54:12.062Z,11.03
2018-07-13T04:56:41.456Z,11.07
2018-07-13T04:59:10.844Z,11.80
2018-07-13T05:01:40.240Z,11.37
2018-07-13T05:04:09.559Z,11.70
2018-07-13T05:06:38.857Z,10.97
2018-07-13T05:09:09.384Z,11.57
2018-07-13T05:11:38.894Z,11.50
2018-07-13T05:14:08.291Z,10.23
2018-07-13T05:16:37.608Z,11.17
2018-07-13T05:19:06.912Z,12.57
2018-07-13T05:21:36.382Z,11.67
2018-07-13T05:24:05.734Z,12.27
2018-07-13T05:26:34.989Z,11.80
2018-07-13T05:29:04.422Z,12.37
2018-07-13T05:31:33.670Z,11.87
2018-07-13T05:34:03.130Z,13.10
2018-07-13T05:36:32.489Z,12.30
2018-07-13T05:39:02.276Z,11.70
2018-07-13T05:41:31.581Z,11.63
2018-07-13T05:44:00.913Z,11.70
2018-07-13T05:46:30.295Z,11.50
2018-07-13T05:48:59.545Z,12.03
2018-07-13T05:51:29.086Z,10.77
2018-07-13T05:53:58.426Z,11.23
2018-07-13T05:56:28.354Z,11.67
2018-07-13T05:58:57.647Z,11.80
2018-07-13T06:01:27.076Z,11.03
2018-07-13T06:03:56.495Z,10.90
2018-07-13T06:06:25.886Z,11.07
2018-07-13T06:08:55.256Z,10.50
2018-07-13T06:11:24.326Z,10.87
2018-07-13T06:13:53.700Z,10.57
2018-07-13T06:16:23.131Z,10.23
2018-07-13T06:18:52.577Z,11.13
2018-07-13T06:21:21.868Z,10.50
2018-07-13T06:23:51.294Z,10.67
2018-07-13T06:26:20.567Z,9.60
2018-07-13T06:28:49.979Z,11.17
2018-07-13T06:31:19.447Z,10.90
2018-07-13T06:33:48.814Z,10.07
2018-07-13T06:36:18.061Z,9.63
2018-07-13T06:38:47.291Z,9.43
2018-07-13T06:41:16.578Z,9.50
2018-07-13T06:43:46.080Z,10.90
2018-07-13T06:46:15.266Z,10.10
2018-07-13T06:48:44.692Z,9.20
2018-07-13T06:51:13.960Z,9.50
2018-07-13T06:53:43.392Z,8.97
2018-07-13T06:56:12.664Z,9.60
2018-07-13T06:58:52.846Z,9.23
2018-07-13T07:01:22.140Z,9.70
2018-07-13T07:05:06.096Z,9.43
2018-07-13T07:07:35.520Z,9.90
2018-07-13T07:10:05.028Z,10.40
2018-07-13T07:12:56.431Z,10.33
2018-07-13T07:15:26.374Z,9.70
2018-07-13T07:17:56.056Z,9.10
2018-07-13T07:20:25.446Z,9.10
2018-07-13T07:22:54.844Z,9.40
2018-07-13T07:25:24.166Z,9.20
2018-07-13T07:27:53.426Z,8.93
2018-07-13T07:30:22.775Z,9.37
2018-07-13T07:32:52.017Z,8.00
2018-07-13T07:35:21.553Z,9.00
2018-07-13T07:37:51.328Z,7.87
2018-07-13T07:40:20.861Z,8.40
2018-07-13T07:42:50.268Z,7.70
2018-07-13T07:45:19.907Z,7.47
2018-07-13T07:47:49.356Z,7.43
2018-07-13T07:50:19.113Z,6.73
2018-07-13T07:52:48.566Z,6.67
2018-07-13T07:55:17.915Z,6.20
2018-07-13T07:57:47.318Z,7.67
2018-07-13T08:00:16.760Z,5.00
2018-07-13T08:02:45.892Z,5.50
2018-07-13T08:05:15.230Z,4.77
2018-07-13T08:07:44.597Z,5.00
2018-07-13T08:10:13.834Z,4.57
2018-07-13T08:12:43.104Z,4.70
2018-07-13T08:15:12.640Z,4.07
2018-07-13T08:17:42.121Z,4.43
2018-07-13T08:20:11.754Z,3.57
2018-07-13T08:22:46.325Z,3.80
2018-07-13T08:25:15.634Z,3.43
2018-07-13T08:27:47.498Z,3.60
2018-07-13T08:30:18.854Z,4.70
2018-07-13T08:32:48.542Z,4.50
2018-07-13T08:35:17.882Z,4.03
2018-07-13T08:37:47.010Z,4.87
2018-07-13T08:40:15.933Z,4.93
2018-07-13T08:42:45.167Z,6.03
2018-07-13T08:45:14.168Z,5.07
2018-07-13T08:47:43.194Z,5.27
2018-07-13T08:50:12.490Z,4.57
2018-07-13T08:52:41.757Z,4.93
2018-07-13T08:55:13.567Z,4.73
2018-07-13T08:57:45.117Z,4.23
2018-07-13T09:00:14.377Z,4.10
2018-07-13T09:02:43.563Z,4.70
2018-07-13T09:05:12.962Z,4.73
2018-07-13T09:07:42.214Z,4.70
2018-07-13T09:10:12.951Z,4.83
2018-07-13T09:12:42.517Z,4.30
2018-07-13T09:15:13.270Z,4.40
2018-07-13T09:17:42.624Z,4.60
2018-07-13T09:20:13.155Z,4.90
2018-07-13T09:22:42.494Z,4.87
2018-07-13T09:25:12.338Z,5.03
2018-07-13T09:27:42.126Z,4.97
2018-07-13T09:30:13.466Z,4.67
2018-07-13T09:32:42.963Z,4.13
2018-07-13T09:35:12.493Z,3.77
2018-07-13T09:37:41.851Z,4.10
2018-07-13T09:40:11.184Z,4.53
2018-07-13T09:42:40.542Z,4.03
2018-07-13T09:45:09.991Z,4.63
2018-07-13T09:47:39.349Z,4.43
2018-07-13T09:50:08.686Z,4.10
2018-07-13T09:52:37.978Z,4.50
2018-07-13T09:55:07.479Z,4.07
2018-07-13T09:57:36.682Z,4.03
2018-07-13T10:00:05.992Z,4.47
2018-07-13T10:02:36.930Z,3.70
2018-07-13T10:05:06.357Z,5.00
2018-07-13T10:07:36.018Z,3.70
2018-07-13T10:10:05.062Z,4.03
2018-07-13T10:12:34.032Z,4.20
2018-07-13T10:15:03.073Z,3.90
2018-07-13T10:17:32.046Z,3.73
2018-07-13T10:20:01.408Z,4.20
2018-07-13T10:22:31.496Z,3.90
2018-07-13T10:25:02.116Z,3.70
2018-07-13T10:27:33.743Z,3.40
2018-07-13T10:30:04.925Z,4.00
2018-07-13T10:32:34.827Z,3.60
2018-07-13T10:35:05.937Z,3.90
2018-07-13T10:37:35.614Z,3.70
2018-07-13T10:40:05.035Z,3.70
2018-07-13T10:42:34.198Z,3.50
2018-07-13T10:45:03.751Z,4.20
2018-07-13T10:47:33.019Z,3.60
2018-07-13T10:50:02.457Z,3.63
2018-07-13T10:52:31.689Z,3.23
2018-07-13T10:55:02.087Z,3.90
2018-07-13T10:57:31.367Z,3.50
2018-07-13T11:00:00.668Z,3.00
2018-07-13T11:02:30.062Z,2.97
2018-07-13T11:04:59.312Z,3.30
2018-07-13T11:07:28.569Z,3.07
2018-07-13T11:09:57.818Z,3.63
2018-07-13T11:12:27.281Z,3.60
2018-07-13T11:14:56.564Z,4.37
2018-07-13T11:17:25.899Z,4.20
2018-07-13T11:19:55.247Z,3.80
2018-07-13T11:22:24.570Z,3.80
2018-07-13T11:24:53.830Z,3.80
2018-07-13T11:27:23.087Z,3.30
2018-07-13T11:29:52.354Z,4.03
2018-07-13T11:32:21.664Z,3.73
2018-07-13T11:34:50.957Z,4.10
2018-07-13T11:37:20.083Z,4.33
2018-07-13T11:39:49.251Z,3.73
2018-07-13T11:42:18.591Z,3.50
2018-07-13T11:44:47.561Z,3.83
2018-07-13T11:47:16.583Z,3.70
2018-07-13T11:49:45.946Z,3.30
2018-07-13T11:52:15.399Z,3.50
2018-07-13T11:54:44.807Z,3.57
2018-07-13T11:57:14.330Z,3.53
2018-07-13T11:59:43.595Z,4.13
2018-07-13T12:02:13.129Z,3.60
2018-07-13T12:04:42.346Z,3.03
2018-07-13T12:07:11.606Z,2.93
2018-07-13T12:09:40.845Z,3.30
2018-07-13T12:12:10.382Z,3.27
2018-07-13T12:14:39.684Z,3.20
2018-07-13T12:17:08.875Z,2.80
2018-07-13T12:19:38.167Z,3.23
2018-07-13T12:22:07.497Z,3.30
2018-07-13T12:24:36.729Z,3.67
2018-07-13T12:27:05.939Z,3.20
2018-07-13T12:29:35.168Z,3.60
2018-07-13T12:32:04.596Z,3.20
2018-07-13T12:34:33.945Z,3.33
2018-07-13T12:37:03.219Z,2.87
2018-07-13T12:39:32.409Z,3.40
2018-07-13T12:42:01.702Z,3.63
2018-07-13T12:44:31.038Z,3.40
2018-07-13T12:47:00.405Z,3.30
2018-07-13T12:49:29.661Z,3.63
2018-07-13T12:51:59.090Z,3.00
2018-07-13T12:54:28.392Z,2.90
2018-07-13T12:56:57.625Z,3.33
2018-07-13T12:59:27.142Z,2.70
2018-07-13T13:01:56.627Z,2.80
2018-07-13T13:04:25.864Z,2.70
2018-07-13T13:06:55.078Z,3.00
2018-07-13T13:09:24.360Z,3.30
2018-07-13T13:11:53.736Z,2.87
2018-07-13T13:14:23.054Z,3.33
2018-07-13T13:16:52.415Z,3.27
2018-07-13T13:19:21.664Z,2.90
2018-07-13T13:21:51.007Z,3.57
2018-07-13T13:24:20.146Z,3.37
2018-07-13T13:26:49.542Z,3.20
2018-07-13T13:29:19.043Z,2.93
2018-07-13T13:31:48.315Z,3.60
2018-07-13T13:34:17.559Z,3.00
2018-07-13T13:36:46.834Z,3.20
2018-07-13T13:39:16.154Z,3.60
2018-07-13T13:41:45.920Z,3.50
2018-07-13T13:44:15.227Z,3.43
2018-07-13T13:46:44.570Z,2.97
2018-07-13T13:49:13.775Z,5.00
2018-07-13T13:51:43.036Z,3.70
2018-07-13T13:54:13.263Z,3.00
2018-07-13T13:56:42.563Z,3.37
2018-07-13T13:59:11.810Z,3.20
2018-07-13T14:01:41.165Z,3.23
2018-07-13T14:04:10.544Z,3.37
2018-07-13T14:06:40.810Z,3.07
2018-07-13T14:09:09.972Z,3.40
2018-07-13T14:11:39.378Z,2.90
2018-07-13T14:14:08.629Z,2.70
2018-07-13T14:16:38.077Z,3.00
2018-07-13T14:19:07.329Z,3.00
2018-07-13T14:21:36.571Z,2.93
2018-07-13T14:24:05.730Z,3.20
2018-07-13T14:26:34.900Z,2.50
2018-07-13T14:29:04.146Z,3.00
2018-07-13T14:31:33.501Z,3.37
2018-07-13T14:34:02.745Z,3.57
2018-07-13T14:36:31.962Z,3.17
2018-07-13T14:39:01.586Z,3.60
2018-07-13T14:41:30.734Z,3.00
2018-07-13T14:43:59.996Z,2.83
2018-07-13T14:46:31.155Z,3.10
2018-07-13T14:49:00.405Z,3.50
2018-07-13T14:51:29.604Z,3.20
2018-07-13T14:53:58.805Z,3.27
2018-07-13T14:56:28.114Z,3.13
2018-07-13T14:58:57.511Z,3.30
2018-07-13T15:01:26.777Z,2.80
2018-07-13T15:03:56.158Z,3.30
2018-07-13T15:06:25.396Z,3.10
2018-07-13T15:08:54.714Z,3.57
2018-07-13T15:11:24.075Z,3.23
2018-07-13T15:13:53.310Z,3.10
2018-07-13T15:16:23.398Z,3.10
2018-07-13T15:18:52.965Z,2.80
2018-07-13T15:21:22.237Z,3.33
2018-07-13T15:23:51.756Z,2.90
2018-07-13T15:26:22.187Z,3.07
2018-07-13T15:28:51.898Z,3.10
2018-07-13T15:31:21.399Z,2.87
2018-07-13T15:33:50.686Z,2.83
2018-07-13T15:36:19.947Z,3.30
2018-07-13T15:38:49.196Z,2.60
2018-07-13T15:41:18.563Z,3.57
2018-07-13T15:43:47.800Z,3.10
2018-07-13T15:46:17.093Z,3.20
2018-07-13T15:48:46.425Z,3.00
2018-07-13T15:51:15.767Z,3.07
2018-07-13T15:53:45.099Z,2.93
2018-07-13T15:56:14.396Z,3.30
2018-07-13T15:58:43.814Z,3.60
2018-07-13T16:01:13.066Z,3.97
2018-07-13T16:03:42.439Z,3.70
2018-07-13T16:06:11.686Z,3.47
2018-07-13T16:08:41.117Z,3.80
2018-07-13T16:11:10.646Z,3.57
2018-07-13T16:13:40.008Z,3.80
2018-07-13T16:16:09.292Z,3.53
2018-07-13T16:18:38.642Z,3.47
2018-07-13T16:21:08.184Z,3.40
2018-07-13T16:23:37.426Z,3.70
2018-07-13T16:26:06.773Z,3.07
2018-07-13T16:28:36.610Z,3.60
2018-07-13T16:31:05.804Z,3.27
2018-07-13T16:33:35.242Z,3.30
2018-07-13T16:36:04.598Z,3.63
2018-07-13T16:38:33.958Z,3.33
2018-07-13T16:41:03.315Z,3.40
2018-07-13T16:43:32.550Z,2.87
2018-07-13T16:46:01.825Z,3.23
2018-07-13T16:48:31.137Z,3.50
2018-07-13T16:51:00.558Z,3.33
2018-07-13T16:53:29.729Z,3.50
2018-07-13T16:55:58.996Z,3.77
2018-07-13T16:58:28.309Z,3.73
2018-07-13T17:00:57.625Z,4.00
2018-07-13T17:03:27.125Z,3.40
2018-07-13T17:05:56.349Z,3.63
2018-07-13T17:08:25.637Z,4.10
2018-07-13T17:10:55.010Z,3.70
2018-07-13T17:13:24.341Z,3.80
2018-07-13T17:15:53.514Z,3.50
2018-07-13T17:18:22.755Z,3.57
2018-07-13T17:20:52.055Z,3.73
2018-07-13T17:23:21.362Z,3.73
2018-07-13T17:25:50.615Z,4.40
2018-07-13T17:28:19.852Z,3.70
2018-07-13T17:30:49.148Z,3.90
2018-07-13T17:33:18.586Z,3.30
2018-07-13T17:35:47.937Z,3.40
2018-07-13T17:38:17.574Z,3.10
2018-07-13T17:40:46.836Z,3.90
2018-07-13T17:43:16.075Z,4.07
2018-07-13T17:45:45.417Z,4.03
2018-07-13T17:48:14.673Z,5.07
2018-07-13T17:50:44.070Z,3.87
2018-07-13T17:53:13.382Z,4.00
2018-07-13T17:55:42.671Z,3.80
2018-07-13T17:58:12.047Z,3.87
2018-07-13T18:00:41.390Z,4.10
2018-07-13T18:03:10.772Z,4.00
2018-07-13T18:05:40.157Z,3.80
2018-07-13T18:08:09.400Z,5.33
2018-07-13T18:10:38.768Z,4.20
2018-07-13T18:13:08.235Z,3.90
2018-07-13T18:15:37.834Z,4.40
2018-07-13T18:18:07.101Z,4.23
2018-07-13T18:20:36.491Z,4.00
2018-07-13T18:23:05.942Z,3.70
2018-07-13T18:25:35.326Z,4.17
2018-07-13T18:28:04.655Z,3.93
2018-07-13T18:30:33.902Z,3.90
2018-07-13T18:33:03.251Z,4.00
2018-07-13T18:35:32.602Z,3.90
2018-07-13T18:38:01.965Z,3.77
2018-07-13T18:40:31.204Z,4.37
2018-07-13T18:43:00.702Z,3.70
2018-07-13T18:45:30.121Z,4.00
2018-07-13T18:47:59.570Z,5.00
2018-07-13T18:50:28.810Z,4.30
2018-07-13T18:52:58.178Z,4.23
2018-07-13T18:55:27.442Z,4.10
2018-07-13T18:57:56.722Z,4.30
2018-07-13T19:00:26.339Z,4.00
2018-07-13T19:02:55.607Z,4.60
2018-07-13T19:05:25.046Z,4.50
2018-07-13T19:07:54.402Z,4.90
2018-07-13T19:10:23.649Z,4.53
2018-07-13T19:12:52.922Z,4.77
2018-07-13T19:15:22.267Z,4.83
2018-07-13T19:17:51.530Z,4.33
2018-07-13T19:20:20.862Z,4.83
2018-07-13T19:22:50.176Z,5.50
2018-07-13T19:25:19.660Z,4.70
2018-07-13T19:27:49.015Z,4.60
2018-07-13T19:30:18.411Z,4.93
2018-07-13T19:32:47.637Z,4.80
2018-07-13T19:35:16.950Z,5.20
2018-07-13T19:37:46.223Z,5.40
2018-07-13T19:40:15.434Z,5.27
2018-07-13T19:42:44.745Z,5.23
2018-07-13T19:45:14.129Z,4.77
2018-07-13T19:47:43.348Z,5.53
2018-07-13T19:50:12.553Z,4.60
2018-07-13T19:52:41.789Z,5.77
2018-07-13T19:55:11.104Z,5.43
2018-07-13T19:57:40.346Z,5.33
2018-07-13T20:00:10.140Z,4.83
2018-07-13T20:02:39.529Z,4.87
2018-07-13T20:05:08.971Z,5.10
2018-07-13T20:07:38.321Z,5.40
2018-07-13T20:10:07.673Z,5.20
2018-07-13T20:12:36.954Z,5.63
2018-07-13T20:15:06.363Z,5.40
2018-07-13T20:17:35.642Z,5.77
2018-07-13T20:20:04.978Z,6.07
2018-07-13T20:22:34.213Z,5.37
2018-07-13T20:25:03.466Z,5.30
2018-07-13T20:27:32.735Z,5.70
2018-07-13T20:30:02.088Z,5.53
2018-07-13T20:32:31.345Z,6.33
2018-07-13T20:35:00.673Z,6.07
2018-07-13T20:37:30.157Z,5.50
2018-07-13T20:39:59.470Z,5.00
2018-07-13T20:42:29.071Z,5.43
2018-07-13T20:44:58.406Z,4.80
2018-07-13T20:47:27.838Z,5.00
2018-07-13T20:49:57.194Z,5.00
2018-07-13T20:52:26.459Z,5.70
2018-07-13T20:54:55.704Z,5.23
2018-07-13T20:57:24.945Z,5.37
2018-07-13T20:59:54.364Z,5.50
2018-07-13T21:02:23.684Z,5.27
2018-07-13T21:04:53.122Z,5.67
2018-07-13T21:07:22.333Z,5.70
2018-07-13T21:09:51.700Z,5.70
2018-07-13T21:12:20.989Z,5.40
2018-07-13T21:14:50.501Z,5.93
2018-07-13T21:17:20.192Z,6.10
2018-07-13T21:19:49.522Z,5.67
2018-07-13T21:22:18.661Z,5.70
2018-07-13T21:24:48.018Z,7.43
2018-07-13T21:27:17.288Z,5.93
2018-07-13T21:29:46.619Z,5.47
2018-07-13T21:32:15.885Z,5.07
2018-07-13T21:34:45.145Z,5.83
2018-07-13T21:37:14.395Z,5.57
2018-07-13T21:39:43.946Z,7.17
2018-07-13T21:42:14.981Z,6.23
2018-07-13T21:44:44.283Z,5.90
2018-07-13T21:47:13.564Z,5.43
2018-07-13T21:49:42.905Z,5.33
2018-07-13T21:52:12.336Z,5.73
2018-07-13T21:54:41.565Z,5.10
2018-07-13T21:57:10.564Z,6.20
2018-07-13T21:59:39.947Z,6.00
2018-07-13T22:02:09.380Z,6.43
2018-07-13T22:04:38.511Z,5.53
2018-07-13T22:07:07.507Z,5.43
2018-07-13T22:09:37.097Z,6.17
2018-07-13T22:12:06.541Z,5.53
2018-07-13T22:14:36.094Z,6.10
2018-07-13T22:17:05.925Z,6.47
2018-07-13T22:19:35.913Z,5.67
2018-07-13T22:22:05.886Z,5.57
2018-07-13T22:24:35.271Z,6.53
2018-07-13T22:27:04.648Z,8.03
2018-07-13T22:29:33.954Z,6.60
2018-07-13T22:32:03.246Z,5.40
2018-07-13T22:34:32.596Z,6.50
2018-07-13T22:37:01.833Z,7.20
2018-07-13T22:39:31.284Z,6.97
2018-07-13T22:42:00.555Z,6.60
2018-07-13T22:44:29.785Z,6.80
2018-07-13T22:46:59.060Z,6.60
2018-07-13T22:49:28.284Z,5.93
2018-07-13T22:51:57.538Z,6.47
2018-07-13T22:54:26.907Z,6.00
2018-07-13T22:56:56.225Z,5.80
2018-07-13T22:59:25.533Z,6.00
2018-07-13T23:01:54.874Z,5.60
2018-07-13T23:04:24.154Z,5.93
2018-07-13T23:06:53.522Z,5.53
2018-07-13T23:09:22.777Z,5.27
2018-07-13T23:11:52.106Z,5.57
2018-07-13T23:14:21.327Z,6.77
2018-07-13T23:16:50.859Z,5.90
2018-07-13T23:19:20.071Z,7.23
2018-07-13T23:21:49.353Z,6.00
2018-07-13T23:24:18.750Z,6.43
2018-07-13T23:26:48.157Z,6.00
2018-07-13T23:29:17.412Z,6.90
2018-07-13T23:31:46.758Z,6.13
2018-07-13T23:34:16.008Z,5.70
2018-07-13T23:36:45.348Z,6.20
2018-07-13T23:39:14.711Z,6.87
2018-07-13T23:41:44.115Z,6.20
2018-07-13T23:44:13.422Z,5.63
2018-07-13T23:46:42.643Z,5.50
2018-07-13T23:49:11.935Z,6.00
2018-07-13T23:51:41.289Z,5.00
2018-07-13T23:54:10.499Z,5.57
2018-07-13T23:56:39.753Z,5.17
2018-07-13T23:59:09.003Z,4.70
